DLH7L LSGG-EDDS
Flight info
| Callsign | DLH7L |
|---|---|
| Flight time | 0h 38m |
| Altitude | 28000 |
| Route | SOSAL N871 DITON T163 ZUE T125 ROMIR N851 HEUSE Y715 ARSUT T125 REUTL REUTL5A |
| Aircraft | A320/M-SDE3FGHIRWY/LB1 |
Departure
| Time | 2026-04-30 21:19 |
|---|---|
| Airport | Geneva International Airport (LSGG) |
Arrival
| Time | 2026-04-30 21:58 |
|---|---|
| Airport | Stuttgart Airport (EDDS) |
| Time | Latitude | Longitude | Altitude | Speed | Heading |
|---|---|---|---|---|---|
| 2026-04-30 20:46 | 46.23050 | 6.10619 | 1414 ft | 0 kts | 136° |
| 2026-04-30 20:48 | 46.23029 | 6.10572 | 1390 ft | 0 kts | 135° |
| 2026-04-30 21:05 | 46.23045 | 6.10549 | 1401 ft | 4 kts | 133° |
| 2026-04-30 21:05 | 46.23061 | 6.10518 | 1401 ft | 3 kts | 111° |
| 2026-04-30 21:05 | 46.23069 | 6.10490 | 1404 ft | 4 kts | 121° |
| 2026-04-30 21:05 | 46.23086 | 6.10460 | 1402 ft | 4 kts | 135° |
| 2026-04-30 21:06 | 46.23093 | 6.10450 | 1402 ft | 0 kts | 135° |
| 2026-04-30 21:12 | 46.23077 | 6.10475 | 1407 ft | 5 kts | 134° |
| 2026-04-30 21:12 | 46.23053 | 6.10491 | 1406 ft | 3 kts | 192° |
| 2026-04-30 21:12 | 46.23035 | 6.10469 | 1411 ft | 5 kts | 233° |
| 2026-04-30 21:12 | 46.23015 | 6.10437 | 1409 ft | 4 kts | 225° |
| 2026-04-30 21:13 | 46.22999 | 6.10415 | 1404 ft | 3 kts | 225° |
| 2026-04-30 21:13 | 46.22980 | 6.10387 | 1407 ft | 7 kts | 225° |
| 2026-04-30 21:13 | 46.22949 | 6.10336 | 1402 ft | 6 kts | 246° |
| 2026-04-30 21:13 | 46.22960 | 6.10295 | 1407 ft | 4 kts | 304° |
| 2026-04-30 21:14 | 46.22975 | 6.10271 | 1408 ft | 5 kts | 316° |
| 2026-04-30 21:14 | 46.23008 | 6.10225 | 1404 ft | 6 kts | 316° |
| 2026-04-30 21:14 | 46.23043 | 6.10177 | 1406 ft | 9 kts | 316° |
| 2026-04-30 21:14 | 46.23047 | 6.10118 | 1402 ft | 8 kts | 237° |
| 2026-04-30 21:15 | 46.22988 | 6.10031 | 1410 ft | 13 kts | 226° |
| 2026-04-30 21:15 | 46.22930 | 6.09945 | 1408 ft | 11 kts | 226° |
| 2026-04-30 21:15 | 46.22881 | 6.09872 | 1408 ft | 9 kts | 226° |
| 2026-04-30 21:15 | 46.22838 | 6.09810 | 1408 ft | 8 kts | 225° |
| 2026-04-30 21:16 | 46.22803 | 6.09758 | 1406 ft | 7 kts | 225° |
| 2026-04-30 21:16 | 46.22756 | 6.09688 | 1407 ft | 18 kts | 227° |
| 2026-04-30 21:16 | 46.22664 | 6.09558 | 1400 ft | 18 kts | 223° |
| 2026-04-30 21:16 | 46.22581 | 6.09428 | 1401 ft | 17 kts | 233° |
| 2026-04-30 21:17 | 46.22550 | 6.09310 | 1404 ft | 7 kts | 266° |
| 2026-04-30 21:17 | 46.22549 | 6.09244 | 1412 ft | 13 kts | 270° |
| 2026-04-30 21:17 | 46.22578 | 6.09159 | 1419 ft | 6 kts | 315° |
| 2026-04-30 21:17 | 46.22628 | 6.09158 | 1416 ft | 13 kts | 32° |
| 2026-04-30 21:18 | 46.22669 | 6.09223 | 1419 ft | 6 kts | 45° |
| 2026-04-30 21:18 | 46.22696 | 6.09263 | 1417 ft | 5 kts | 45° |
| 2026-04-30 21:18 | 46.22781 | 6.09385 | 1421 ft | 48 kts | 45° |
| 2026-04-30 21:18 | 46.23184 | 6.09977 | 1410 ft | 115 kts | 45° |
| 2026-04-30 21:19 | 46.23877 | 6.10990 | 1382 ft | 166 kts | 45° |
| 2026-04-30 21:19 | 46.24720 | 6.12230 | 1795 ft | 180 kts | 46° |
| 2026-04-30 21:19 | 46.25596 | 6.13576 | 2489 ft | 186 kts | 47° |
| 2026-04-30 21:19 | 46.26516 | 6.15001 | 2887 ft | 204 kts | 45° |
| 2026-04-30 21:20 | 46.27577 | 6.16556 | 3222 ft | 230 kts | 45° |
| 2026-04-30 21:20 | 46.28349 | 6.17678 | 3505 ft | 246 kts | 45° |
| 2026-04-30 21:20 | 46.29592 | 6.19486 | 4190 ft | 258 kts | 45° |
| 2026-04-30 21:20 | 46.30879 | 6.21353 | 5034 ft | 265 kts | 45° |
| 2026-04-30 21:21 | 46.32192 | 6.23266 | 5897 ft | 270 kts | 44° |
| 2026-04-30 21:21 | 46.33527 | 6.25218 | 6759 ft | 275 kts | 43° |
| 2026-04-30 21:21 | 46.36196 | 6.29294 | 8433 ft | 284 kts | 53° |
| 2026-04-30 21:22 | 46.37155 | 6.31816 | 9286 ft | 288 kts | 69° |
| 2026-04-30 21:22 | 46.38932 | 6.40558 | 10867 ft | 332 kts | 73° |
| 2026-04-30 21:23 | 46.39592 | 6.43868 | 11285 ft | 347 kts | 73° |
| 2026-04-30 21:23 | 46.40269 | 6.47254 | 11970 ft | 352 kts | 73° |
| 2026-04-30 21:23 | 46.41643 | 6.54125 | 13525 ft | 356 kts | 73° |
| 2026-04-30 21:24 | 46.42336 | 6.57588 | 14291 ft | 358 kts | 73° |
| 2026-04-30 21:24 | 46.43022 | 6.61030 | 14916 ft | 362 kts | 73° |
| 2026-04-30 21:24 | 46.43735 | 6.64592 | 15588 ft | 364 kts | 72° |
| 2026-04-30 21:24 | 46.44694 | 6.67949 | 16199 ft | 367 kts | 62° |
| 2026-04-30 21:25 | 46.47746 | 6.73956 | 17443 ft | 374 kts | 51° |
| 2026-04-30 21:25 | 46.49395 | 6.76904 | 18021 ft | 378 kts | 51° |
| 2026-04-30 21:25 | 46.51058 | 6.79889 | 18615 ft | 381 kts | 51° |
| 2026-04-30 21:26 | 46.54410 | 6.85934 | 19650 ft | 386 kts | 51° |
| 2026-04-30 21:26 | 46.56106 | 6.88986 | 20185 ft | 388 kts | 51° |
| 2026-04-30 21:27 | 46.59523 | 6.95120 | 21259 ft | 392 kts | 51° |
| 2026-04-30 21:27 | 46.61227 | 6.98185 | 21765 ft | 395 kts | 51° |
| 2026-04-30 21:27 | 46.62959 | 7.01302 | 22270 ft | 397 kts | 51° |
| 2026-04-30 21:28 | 46.66459 | 7.07599 | 23266 ft | 402 kts | 51° |
| 2026-04-30 21:28 | 46.68219 | 7.10781 | 23747 ft | 404 kts | 51° |
| 2026-04-30 21:28 | 46.71771 | 7.17221 | 24542 ft | 409 kts | 51° |
| 2026-04-30 21:29 | 46.73554 | 7.20457 | 24913 ft | 411 kts | 51° |
| 2026-04-30 21:29 | 46.78951 | 7.30262 | 26015 ft | 417 kts | 51° |
| 2026-04-30 21:30 | 46.82608 | 7.36925 | 26740 ft | 422 kts | 51° |
| 2026-04-30 21:31 | 46.88254 | 7.47244 | 27133 ft | 443 kts | 51° |
| 2026-04-30 21:31 | 46.92117 | 7.54363 | 27391 ft | 453 kts | 51° |
| 2026-04-30 21:32 | 46.96073 | 7.61674 | 27704 ft | 461 kts | 51° |
| 2026-04-30 21:32 | 46.98067 | 7.65367 | 27933 ft | 463 kts | 51° |
| 2026-04-30 21:32 | 47.00066 | 7.69074 | 28141 ft | 464 kts | 51° |
| 2026-04-30 21:32 | 47.02074 | 7.72792 | 28189 ft | 465 kts | 51° |
| 2026-04-30 21:33 | 47.08084 | 7.83934 | 28202 ft | 464 kts | 51° |
| 2026-04-30 21:34 | 47.12090 | 7.91387 | 28207 ft | 464 kts | 52° |
| 2026-04-30 21:34 | 47.17457 | 8.03223 | 28212 ft | 464 kts | 58° |
| 2026-04-30 21:35 | 47.19172 | 8.07248 | 27916 ft | 463 kts | 58° |
| 2026-04-30 21:35 | 47.20855 | 8.11208 | 27453 ft | 450 kts | 58° |
| 2026-04-30 21:35 | 47.22493 | 8.15067 | 27087 ft | 444 kts | 58° |
| 2026-04-30 21:35 | 47.24105 | 8.18873 | 26835 ft | 442 kts | 58° |
| 2026-04-30 21:36 | 47.25752 | 8.22765 | 26583 ft | 441 kts | 58° |
| 2026-04-30 21:36 | 47.27346 | 8.26537 | 26327 ft | 439 kts | 58° |
| 2026-04-30 21:37 | 47.32654 | 8.37375 | 25601 ft | 431 kts | 48° |
| 2026-04-30 21:37 | 47.34663 | 8.40685 | 25367 ft | 432 kts | 48° |
| 2026-04-30 21:37 | 47.36665 | 8.43999 | 25161 ft | 434 kts | 49° |
| 2026-04-30 21:37 | 47.38675 | 8.47337 | 24920 ft | 434 kts | 49° |
| 2026-04-30 21:38 | 47.40671 | 8.50662 | 24678 ft | 433 kts | 49° |
| 2026-04-30 21:38 | 47.42668 | 8.53999 | 24437 ft | 431 kts | 49° |
| 2026-04-30 21:38 | 47.44625 | 8.57277 | 24219 ft | 431 kts | 49° |
| 2026-04-30 21:38 | 47.46603 | 8.60586 | 23993 ft | 430 kts | 49° |
| 2026-04-30 21:39 | 47.48587 | 8.63900 | 23741 ft | 427 kts | 49° |
| 2026-04-30 21:39 | 47.50550 | 8.67184 | 23466 ft | 425 kts | 49° |
| 2026-04-30 21:39 | 47.52502 | 8.70460 | 23192 ft | 423 kts | 49° |
| 2026-04-30 21:39 | 47.54443 | 8.73723 | 22920 ft | 421 kts | 49° |
| 2026-04-30 21:40 | 47.56373 | 8.76970 | 22654 ft | 420 kts | 49° |
| 2026-04-30 21:40 | 47.58300 | 8.80217 | 22373 ft | 418 kts | 49° |
| 2026-04-30 21:40 | 47.60023 | 8.83674 | 22123 ft | 415 kts | 57° |
| 2026-04-30 21:40 | 47.61535 | 8.87316 | 21863 ft | 412 kts | 58° |
| 2026-04-30 21:41 | 47.63018 | 8.90880 | 21614 ft | 410 kts | 58° |
| 2026-04-30 21:41 | 47.64522 | 8.94486 | 21360 ft | 409 kts | 58° |
| 2026-04-30 21:41 | 47.66021 | 8.98077 | 21104 ft | 408 kts | 58° |
| 2026-04-30 21:41 | 47.67514 | 9.01654 | 20845 ft | 406 kts | 58° |
| 2026-04-30 21:42 | 47.69095 | 9.05130 | 20614 ft | 405 kts | 50° |
| 2026-04-30 21:42 | 47.71111 | 9.08038 | 20363 ft | 404 kts | 38° |
| 2026-04-30 21:42 | 47.73484 | 9.10177 | 20113 ft | 404 kts | 26° |
| 2026-04-30 21:42 | 47.76154 | 9.11493 | 19871 ft | 406 kts | 13° |
| 2026-04-30 21:43 | 47.78970 | 9.12052 | 19641 ft | 407 kts | 8° |
| 2026-04-30 21:43 | 47.81796 | 9.12512 | 19396 ft | 406 kts | 8° |
| 2026-04-30 21:43 | 47.84605 | 9.12960 | 19159 ft | 406 kts | 8° |
| 2026-04-30 21:43 | 47.87414 | 9.13417 | 18921 ft | 405 kts | 9° |
| 2026-04-30 21:44 | 47.90208 | 9.13882 | 18496 ft | 403 kts | 9° |
| 2026-04-30 21:44 | 47.92953 | 9.14341 | 17936 ft | 399 kts | 9° |
| 2026-04-30 21:44 | 47.95708 | 9.14800 | 17400 ft | 397 kts | 8° |
| 2026-04-30 21:44 | 47.98440 | 9.15255 | 16858 ft | 393 kts | 9° |
| 2026-04-30 21:45 | 48.01147 | 9.15707 | 16273 ft | 389 kts | 8° |
| 2026-04-30 21:45 | 48.03841 | 9.16002 | 15702 ft | 387 kts | 2° |
| 2026-04-30 21:45 | 48.06508 | 9.15539 | 15141 ft | 387 kts | 350° |
| 2026-04-30 21:45 | 48.09123 | 9.14624 | 14585 ft | 384 kts | 349° |
| 2026-04-30 21:46 | 48.11723 | 9.13710 | 14038 ft | 382 kts | 349° |
| 2026-04-30 21:46 | 48.14301 | 9.12804 | 13433 ft | 379 kts | 350° |
| 2026-04-30 21:46 | 48.16855 | 9.11907 | 12831 ft | 375 kts | 349° |
| 2026-04-30 21:46 | 48.19391 | 9.11019 | 12264 ft | 372 kts | 349° |
| 2026-04-30 21:47 | 48.21899 | 9.10143 | 11678 ft | 369 kts | 350° |
| 2026-04-30 21:47 | 48.24362 | 9.09286 | 11116 ft | 366 kts | 350° |
| 2026-04-30 21:47 | 48.26828 | 9.08424 | 10563 ft | 362 kts | 349° |
| 2026-04-30 21:47 | 48.29275 | 9.07565 | 9992 ft | 359 kts | 349° |
| 2026-04-30 21:48 | 48.31693 | 9.06715 | 9379 ft | 352 kts | 349° |
| 2026-04-30 21:48 | 48.34017 | 9.05892 | 8786 ft | 335 kts | 350° |
| 2026-04-30 21:48 | 48.36239 | 9.05101 | 8232 ft | 320 kts | 350° |
| 2026-04-30 21:48 | 48.38368 | 9.04347 | 7740 ft | 307 kts | 350° |
| 2026-04-30 21:49 | 48.40412 | 9.03626 | 7239 ft | 296 kts | 349° |
| 2026-04-30 21:49 | 48.42386 | 9.02929 | 6769 ft | 287 kts | 351° |
| 2026-04-30 21:49 | 48.44296 | 9.02259 | 6265 ft | 282 kts | 351° |
| 2026-04-30 21:49 | 48.46196 | 9.01593 | 5750 ft | 277 kts | 351° |
| 2026-04-30 21:50 | 48.48047 | 9.00939 | 5245 ft | 268 kts | 352° |
| 2026-04-30 21:50 | 48.49840 | 9.00305 | 4717 ft | 261 kts | 352° |
| 2026-04-30 21:50 | 48.51565 | 8.99693 | 4228 ft | 254 kts | 352° |
| 2026-04-30 21:50 | 48.53238 | 8.99096 | 3992 ft | 237 kts | 352° |
| 2026-04-30 21:51 | 48.54780 | 8.98544 | 3980 ft | 219 kts | 353° |
| 2026-04-30 21:51 | 48.56204 | 8.98032 | 4002 ft | 203 kts | 353° |
| 2026-04-30 21:51 | 48.57548 | 8.97552 | 3986 ft | 189 kts | 354° |
| 2026-04-30 21:51 | 48.58786 | 8.97109 | 4012 ft | 179 kts | 355° |
| 2026-04-30 21:52 | 48.59986 | 8.96685 | 3987 ft | 176 kts | 356° |
| 2026-04-30 21:52 | 48.61174 | 8.96292 | 3977 ft | 173 kts | 1° |
| 2026-04-30 21:52 | 48.62283 | 8.96344 | 3971 ft | 149 kts | 21° |
| 2026-04-30 21:52 | 48.63204 | 8.96857 | 3973 ft | 136 kts | 38° |
| 2026-04-30 21:53 | 48.63939 | 8.97712 | 3979 ft | 131 kts | 53° |
| 2026-04-30 21:53 | 48.64466 | 8.98836 | 3989 ft | 132 kts | 68° |
| 2026-04-30 21:53 | 48.64768 | 9.00134 | 3960 ft | 135 kts | 77° |
| 2026-04-30 21:53 | 48.65034 | 9.01514 | 3850 ft | 135 kts | 77° |
| 2026-04-30 21:54 | 48.65297 | 9.02880 | 3686 ft | 135 kts | 77° |
| 2026-04-30 21:54 | 48.65559 | 9.04243 | 3515 ft | 134 kts | 77° |
| 2026-04-30 21:54 | 48.65820 | 9.05603 | 3337 ft | 134 kts | 77° |
| 2026-04-30 21:54 | 48.66077 | 9.06942 | 3161 ft | 134 kts | 76° |
| 2026-04-30 21:55 | 48.66338 | 9.08303 | 2980 ft | 134 kts | 76° |
| 2026-04-30 21:55 | 48.66598 | 9.09663 | 2790 ft | 134 kts | 75° |
| 2026-04-30 21:55 | 48.66860 | 9.11031 | 2591 ft | 135 kts | 76° |
| 2026-04-30 21:55 | 48.67118 | 9.12381 | 2405 ft | 135 kts | 75° |
| 2026-04-30 21:56 | 48.67381 | 9.13760 | 2194 ft | 135 kts | 72° |
| 2026-04-30 21:56 | 48.67647 | 9.15150 | 2014 ft | 137 kts | 77° |
| 2026-04-30 21:56 | 48.67909 | 9.16530 | 1833 ft | 135 kts | 71° |
| 2026-04-30 21:56 | 48.68173 | 9.17907 | 1643 ft | 135 kts | 75° |
| 2026-04-30 21:57 | 48.68435 | 9.19256 | 1505 ft | 134 kts | 75° |
| 2026-04-30 21:57 | 48.68687 | 9.20615 | 1328 ft | 132 kts | 76° |
| 2026-04-30 21:57 | 48.68849 | 9.21474 | 1288 ft | 120 kts | 73° |
| 2026-04-30 21:57 | 48.69074 | 9.22655 | 1287 ft | 54 kts | 73° |
| 2026-04-30 21:58 | 48.69154 | 9.22937 | 1285 ft | 13 kts | 22° |
| 2026-04-30 21:58 | 48.69222 | 9.23033 | 1285 ft | 12 kts | 45° |
| 2026-04-30 21:58 | 48.69274 | 9.23111 | 1287 ft | 11 kts | 43° |
| 2026-04-30 21:58 | 48.69320 | 9.23160 | 1286 ft | 11 kts | 22° |
| 2026-04-30 21:59 | 48.69384 | 9.23144 | 1288 ft | 9 kts | 333° |
| 2026-04-30 21:59 | 48.69418 | 9.23086 | 1287 ft | 7 kts | 274° |
| 2026-04-30 21:59 | 48.69409 | 9.23033 | 1285 ft | 6 kts | 253° |
| 2026-04-30 22:00 | 48.69392 | 9.22950 | 1289 ft | 4 kts | 252° |
| 2026-04-30 22:00 | 48.69373 | 9.22856 | 1288 ft | 5 kts | 253° |
| 2026-04-30 22:00 | 48.69363 | 9.22802 | 1288 ft | 10 kts | 255° |
| 2026-04-30 22:01 | 48.69334 | 9.22622 | 1288 ft | 26 kts | 258° |
| 2026-04-30 22:01 | 48.69280 | 9.22366 | 1286 ft | 19 kts | 254° |
| 2026-04-30 22:01 | 48.69247 | 9.22190 | 1287 ft | 14 kts | 255° |
| 2026-04-30 22:01 | 48.69223 | 9.22059 | 1285 ft | 12 kts | 255° |
| 2026-04-30 22:02 | 48.69201 | 9.21942 | 1289 ft | 11 kts | 253° |
| 2026-04-30 22:02 | 48.69182 | 9.21840 | 1285 ft | 10 kts | 255° |
| 2026-04-30 22:02 | 48.69158 | 9.21706 | 1287 ft | 16 kts | 253° |
| 2026-04-30 22:02 | 48.69127 | 9.21554 | 1287 ft | 14 kts | 253° |
| 2026-04-30 22:03 | 48.69104 | 9.21432 | 1289 ft | 13 kts | 254° |
| 2026-04-30 22:03 | 48.69079 | 9.21296 | 1285 ft | 14 kts | 254° |
| 2026-04-30 22:03 | 48.69054 | 9.21174 | 1285 ft | 13 kts | 255° |
| 2026-04-30 22:03 | 48.69034 | 9.21063 | 1285 ft | 13 kts | 254° |
| 2026-04-30 22:04 | 48.69014 | 9.20959 | 1289 ft | 13 kts | 253° |
| 2026-04-30 22:04 | 48.68991 | 9.20840 | 1285 ft | 11 kts | 253° |
| 2026-04-30 22:04 | 48.68955 | 9.20646 | 1285 ft | 10 kts | 254° |
| 2026-04-30 22:05 | 48.68927 | 9.20503 | 1288 ft | 21 kts | 253° |
| 2026-04-30 22:05 | 48.68889 | 9.20306 | 1290 ft | 19 kts | 255° |
| 2026-04-30 22:05 | 48.68858 | 9.20133 | 1287 ft | 17 kts | 253° |
| 2026-04-30 22:05 | 48.68818 | 9.19986 | 1289 ft | 15 kts | 233° |
| 2026-04-30 22:06 | 48.68763 | 9.19871 | 1285 ft | 13 kts | 244° |
| 2026-04-30 22:06 | 48.68717 | 9.19637 | 1285 ft | 11 kts | 254° |
| 2026-04-30 22:06 | 48.68699 | 9.19542 | 1287 ft | 10 kts | 253° |
| 2026-04-30 22:07 | 48.68683 | 9.19458 | 1290 ft | 8 kts | 254° |
| 2026-04-30 22:07 | 48.68661 | 9.19345 | 1286 ft | 13 kts | 253° |
| 2026-04-30 22:07 | 48.68665 | 9.19233 | 1289 ft | 11 kts | 308° |
| 2026-04-30 22:07 | 48.68714 | 9.19201 | 1287 ft | 8 kts | 359° |